createdAt,value
2023-11-15T00:01:08.049Z,97142.75
2023-11-15T00:04:11.533Z,97162.75
2023-11-15T00:07:16.582Z,97163.59
2023-11-15T00:10:20.169Z,97167.63
2023-11-15T00:13:42.264Z,97169.75
2023-11-15T00:16:45.984Z,97175.16
2023-11-15T00:20:11.319Z,97167.38
2023-11-15T00:23:16.224Z,97168.31
2023-11-15T00:26:20.936Z,97174.31
2023-11-15T00:29:48.922Z,97183.38
2023-11-15T00:32:52.741Z,97190.25
2023-11-15T00:35:57.236Z,97199.41
2023-11-15T00:39:02.371Z,97202.28
2023-11-15T00:42:26.229Z,97207.09
2023-11-15T00:45:30.160Z,97202.00
2023-11-15T00:48:33.805Z,97215.16
2023-11-15T00:51:57.762Z,97216.16
2023-11-15T00:55:02.621Z,97222.19
2023-11-15T00:58:10.200Z,97229.13
2023-11-15T01:01:14.024Z,97252.19
2023-11-15T01:04:17.693Z,97245.06
2023-11-15T01:07:21.336Z,97249.72
2023-11-15T01:10:26.639Z,97257.91
2023-11-15T01:13:30.239Z,97270.38
2023-11-15T01:16:33.814Z,97288.50
2023-11-15T01:19:37.600Z,97272.94
2023-11-15T01:22:42.716Z,97261.41
2023-11-15T01:25:47.897Z,97275.84
2023-11-15T01:28:52.323Z,97295.84
2023-11-15T01:31:56.954Z,97283.41
2023-11-15T01:35:00.487Z,97299.78
2023-11-15T01:38:04.212Z,97297.31
2023-11-15T01:41:09.326Z,97303.22
2023-11-15T01:44:31.092Z,97306.72
2023-11-15T01:47:35.073Z,97324.78
2023-11-15T01:50:57.741Z,97317.09
2023-11-15T01:54:21.208Z,97320.63
2023-11-15T01:57:26.113Z,97320.63
2023-11-15T02:00:47.879Z,97334.31
2023-11-15T02:03:51.575Z,97341.50
2023-11-15T02:06:55.342Z,97348.19
2023-11-15T02:09:58.873Z,97360.41
2023-11-15T02:13:03.885Z,97347.34
2023-11-15T02:16:08.360Z,97362.06
2023-11-15T02:19:30.421Z,97354.09
2023-11-15T02:22:53.460Z,97374.75
2023-11-15T02:25:59.305Z,97368.53
2023-11-15T02:29:02.763Z,97380.66
2023-11-15T02:32:06.436Z,97395.97
2023-11-15T02:35:10.976Z,97389.19
2023-11-15T02:38:14.537Z,97396.16
2023-11-15T02:41:19.573Z,97415.19
2023-11-15T02:44:23.149Z,97400.75
2023-11-15T02:47:27.566Z,97389.63
2023-11-15T02:50:32.217Z,97420.00
2023-11-15T02:53:35.853Z,97413.72
2023-11-15T02:56:40.719Z,97434.63
2023-11-15T02:59:44.465Z,97431.88
2023-11-15T03:02:48.542Z,97437.97
2023-11-15T03:05:52.325Z,97446.47
2023-11-15T03:08:56.084Z,97449.44
2023-11-15T03:12:01.062Z,97454.53
2023-11-15T03:15:06.432Z,97468.16
2023-11-15T03:18:11.092Z,97483.13
2023-11-15T03:21:14.675Z,97486.66
2023-11-15T03:24:18.410Z,97493.31
2023-11-15T03:27:23.259Z,97505.03
2023-11-15T03:30:26.859Z,97493.00
2023-11-15T03:33:30.667Z,97511.97
2023-11-15T03:36:53.277Z,97519.19
2023-11-15T03:39:57.006Z,97527.88
2023-11-15T03:43:02.261Z,97545.25
2023-11-15T03:46:06.780Z,97537.81
2023-11-15T03:49:10.451Z,97535.41
2023-11-15T03:52:14.076Z,97555.19
2023-11-15T03:55:18.204Z,97569.22
2023-11-15T03:58:24.216Z,97563.81
2023-11-15T04:01:27.798Z,97583.00
2023-11-15T04:04:31.778Z,97585.19
2023-11-15T04:07:35.381Z,97598.31
2023-11-15T04:10:39.363Z,97613.41
2023-11-15T04:13:44.272Z,97624.94
2023-11-15T04:16:47.788Z,97626.09
2023-11-15T04:19:51.354Z,97637.69
2023-11-15T04:22:54.903Z,97645.63
2023-11-15T04:25:59.301Z,97629.06
2023-11-15T04:29:04.866Z,97651.25
2023-11-15T04:34:42.764Z,97670.16
2023-11-15T04:37:46.285Z,97659.50
2023-11-15T04:40:49.810Z,97672.28
2023-11-15T04:43:53.604Z,97674.19
2023-11-15T04:46:57.171Z,97686.06
2023-11-15T04:50:02.025Z,97682.72
2023-11-15T04:53:08.297Z,97685.56
2023-11-15T04:56:12.265Z,97687.34
2023-11-15T04:59:15.829Z,97692.69
2023-11-15T05:02:19.353Z,97704.72
2023-11-15T05:05:24.981Z,97696.38
2023-11-15T05:08:29.268Z,97696.50
2023-11-15T05:11:32.946Z,97696.28
2023-11-15T05:14:37.464Z,97708.16
2023-11-15T05:17:41.070Z,97707.28
2023-11-15T05:20:47.249Z,97707.94
2023-11-15T05:23:52.739Z,97714.03
2023-11-15T05:26:57.117Z,97720.13
2023-11-15T05:30:00.823Z,97713.66
2023-11-15T05:33:04.554Z,97716.31
2023-11-15T05:36:10.938Z,97709.28
2023-11-15T05:39:14.553Z,97715.31
2023-11-15T05:42:18.114Z,97727.41
2023-11-15T05:45:21.614Z,97731.75
2023-11-15T05:48:25.371Z,97722.63
2023-11-15T05:51:31.020Z,97722.56
2023-11-15T05:54:34.718Z,97718.56
2023-11-15T05:57:38.494Z,97728.25
2023-11-15T06:00:42.884Z,97735.56
2023-11-15T06:04:05.148Z,97735.56
2023-11-15T06:07:12.219Z,97754.03
2023-11-15T06:10:34.097Z,97755.72
2023-11-15T06:13:38.788Z,97755.31
2023-11-15T06:16:42.402Z,97768.31
2023-11-15T06:19:49.457Z,97778.09
2023-11-15T06:22:59.928Z,97777.25
2023-11-15T06:26:03.440Z,97780.00
2023-11-15T06:29:08.245Z,97774.06
2023-11-15T06:32:11.791Z,97774.06
2023-11-15T06:35:33.667Z,97793.41
2023-11-15T06:38:38.605Z,97792.63
2023-11-15T06:41:42.656Z,97796.13
2023-11-15T06:44:46.261Z,97796.28
2023-11-15T06:47:52.292Z,97797.78
2023-11-15T06:50:55.973Z,97798.34
2023-11-15T06:59:33.194Z,97810.94
2023-11-15T07:04:06.044Z,97840.31
2023-11-15T07:07:33.728Z,97816.22
2023-11-15T07:10:47.952Z,97819.78
2023-11-15T07:13:51.615Z,97829.22
2023-11-15T07:16:56.812Z,97834.25
2023-11-15T07:20:22.251Z,97844.31
2023-11-15T07:24:11.429Z,97834.13
2023-11-15T07:27:37.628Z,97847.66
2023-11-15T07:30:43.262Z,97850.41
2023-11-15T07:34:06.959Z,97865.25
2023-11-15T07:37:10.904Z,97872.22
2023-11-15T07:40:14.692Z,97864.63
2023-11-15T07:43:19.474Z,97865.88
2023-11-15T07:46:25.558Z,97855.00
2023-11-15T07:49:32.309Z,97860.91
2023-11-15T07:52:36.009Z,97872.09
2023-11-15T07:55:39.528Z,97865.88
2023-11-15T07:58:45.901Z,97870.13
2023-11-15T08:01:49.837Z,97874.25
2023-11-15T08:04:53.469Z,97884.53
2023-11-15T08:07:58.683Z,97884.44
2023-11-15T08:11:04.956Z,97899.69
2023-11-15T08:14:11.023Z,97908.03
2023-11-15T08:17:15.713Z,97913.88
2023-11-15T08:20:19.438Z,97895.75
2023-11-15T08:23:41.551Z,97916.19
2023-11-15T08:26:51.149Z,97924.00
2023-11-15T08:29:56.251Z,97899.88
2023-11-15T08:32:59.920Z,97930.94
2023-11-15T08:36:03.527Z,97932.69
2023-11-15T08:39:26.272Z,97942.16
2023-11-15T08:42:29.861Z,97948.72
2023-11-15T08:45:34.746Z,97952.63
2023-11-15T08:48:38.518Z,97947.44
2023-11-15T08:51:42.437Z,97955.88
2023-11-15T08:55:05.065Z,97958.03
2023-11-15T08:58:08.642Z,97959.72
2023-11-15T09:01:14.031Z,97960.69
2023-11-15T09:04:18.878Z,97954.19
2023-11-15T09:07:22.373Z,97946.72
2023-11-15T09:10:28.145Z,97953.09
2023-11-15T09:13:34.149Z,97960.38
2023-11-15T09:16:39.039Z,97958.53
2023-11-15T09:19:47.633Z,97950.50
2023-11-15T09:22:55.153Z,97951.06
2023-11-15T09:26:00.533Z,97956.41
2023-11-15T09:29:22.442Z,97960.88
2023-11-15T09:32:27.204Z,97956.28
2023-11-15T09:35:32.650Z,97956.22
2023-11-15T09:38:36.205Z,97960.78
2023-11-15T09:41:39.869Z,97952.00
2023-11-15T09:44:45.380Z,97972.06
2023-11-15T09:47:52.247Z,97971.16
2023-11-15T09:50:57.933Z,97971.25
2023-11-15T09:54:13.051Z,97981.53
2023-11-15T09:57:21.681Z,97974.59
2023-11-15T10:00:30.492Z,97972.84
2023-11-15T10:03:42.028Z,97954.31
2023-11-15T10:06:46.189Z,97988.31
2023-11-15T10:09:51.170Z,97971.91
2023-11-15T10:12:55.855Z,97984.97
2023-11-15T10:16:00.195Z,97974.34
2023-11-15T10:19:23.977Z,97967.72
2023-11-15T10:22:27.805Z,97986.16
2023-11-15T10:25:32.943Z,97977.13
2023-11-15T10:28:41.019Z,97982.84
2023-11-15T10:34:52.883Z,97996.06
2023-11-15T10:38:02.134Z,97994.06
2023-11-15T10:41:09.544Z,97985.69
2023-11-15T10:44:16.223Z,97987.72
2023-11-15T10:47:25.031Z,97996.72
2023-11-15T10:50:35.357Z,97984.06
2023-11-15T10:53:40.856Z,97995.78
2023-11-15T10:56:52.734Z,98001.25
2023-11-15T11:00:07.963Z,98003.50
2023-11-15T11:03:13.244Z,98010.13
2023-11-15T11:06:27.099Z,97999.56
2023-11-15T11:09:38.251Z,98003.19
2023-11-15T11:12:43.810Z,97990.19
2023-11-15T11:15:49.206Z,98000.50
2023-11-15T11:19:12.876Z,97991.97
2023-11-15T11:22:19.348Z,97996.13
2023-11-15T11:25:26.849Z,97998.13
2023-11-15T11:29:00.978Z,97986.06
2023-11-15T11:32:21.224Z,97990.28
2023-11-15T11:35:38.846Z,97973.53
2023-11-15T11:38:45.681Z,97991.88
2023-11-15T11:41:52.570Z,98001.09
2023-11-15T11:44:57.802Z,97997.66
2023-11-15T11:48:03.888Z,97996.75
2023-11-15T11:51:09.571Z,97978.56
2023-11-15T11:54:25.525Z,97986.59
2023-11-15T11:57:34.813Z,98000.75
2023-11-15T12:00:39.234Z,97987.00
2023-11-15T12:03:49.292Z,97981.25
2023-11-15T12:06:55.772Z,97984.78
2023-11-15T12:10:07.025Z,97989.34
2023-11-15T12:13:12.775Z,97983.66
2023-11-15T12:16:20.569Z,97981.06
2023-11-15T12:19:27.919Z,97981.56
2023-11-15T12:22:32.622Z,97984.47
2023-11-15T12:25:48.467Z,97980.22
2023-11-15T12:28:52.953Z,97980.81
2023-11-15T12:32:00.595Z,97978.38
2023-11-15T12:35:08.287Z,97984.91
2023-11-15T12:38:14.643Z,98005.44
2023-11-15T12:41:20.714Z,98025.53
2023-11-15T12:44:25.248Z,98028.09
2023-11-15T12:47:30.435Z,98041.56
2023-11-15T12:50:36.002Z,98039.66
2023-11-15T12:53:43.191Z,98031.09
2023-11-15T12:57:06.765Z,98058.19
2023-11-15T13:00:30.489Z,98048.84
2023-11-15T13:03:36.963Z,98051.91
2023-11-15T13:06:43.663Z,98050.16
2023-11-15T13:09:49.646Z,98048.09
2023-11-15T13:12:58.574Z,98051.03
2023-11-15T13:16:04.465Z,98044.38
2023-11-15T13:19:10.995Z,98041.56
2023-11-15T13:22:16.675Z,98039.41
2023-11-15T13:25:22.500Z,98048.41
2023-11-15T13:28:30.608Z,98039.03
2023-11-15T13:31:35.730Z,98037.97
2023-11-15T13:34:40.523Z,98050.53
2023-11-15T13:37:45.013Z,98056.84
2023-11-15T13:40:49.999Z,98058.94
2023-11-15T13:43:59.206Z,98068.53
2023-11-15T13:47:06.305Z,98070.28
2023-11-15T13:50:12.573Z,98086.59
2023-11-15T13:53:17.298Z,98069.03
2023-11-15T13:56:22.408Z,98069.78
2023-11-15T13:59:33.060Z,98078.31
2023-11-15T14:02:37.609Z,98076.44
2023-11-15T14:05:44.469Z,98082.03
2023-11-15T14:08:56.076Z,98081.75
2023-11-15T14:12:06.169Z,98076.53
2023-11-15T14:15:13.536Z,98089.47
2023-11-15T14:18:18.136Z,98090.44
2023-11-15T14:21:22.727Z,98087.00
2023-11-15T14:24:26.934Z,98098.66
2023-11-15T14:27:31.596Z,98096.00
2023-11-15T14:30:37.563Z,98096.41
2023-11-15T14:33:42.123Z,98091.66
2023-11-15T14:36:47.604Z,98099.34
2023-11-15T14:39:52.222Z,98101.28
2023-11-15T14:42:57.924Z,98114.44
2023-11-15T14:46:04.424Z,98122.97
2023-11-15T14:49:09.184Z,98120.44
2023-11-15T14:52:14.683Z,98116.94
2023-11-15T14:55:20.204Z,98119.28
2023-11-15T14:58:26.637Z,98121.47
2023-11-15T15:01:32.327Z,98117.06
2023-11-15T15:04:38.676Z,98121.28
2023-11-15T15:07:45.621Z,98127.34
2023-11-15T15:10:54.561Z,98122.13
2023-11-15T15:13:59.161Z,98123.88
2023-11-15T15:17:07.194Z,98088.34
2023-11-15T15:20:17.929Z,98135.31
2023-11-15T15:23:22.500Z,98142.22
2023-11-15T15:26:26.504Z,98131.03
2023-11-15T15:29:31.068Z,98139.47
2023-11-15T15:32:36.238Z,98145.94
2023-11-15T15:35:40.344Z,98155.09
2023-11-15T15:38:44.164Z,98162.31
2023-11-15T15:41:50.709Z,98157.13
2023-11-15T15:44:54.934Z,98165.06
2023-11-15T15:48:00.670Z,98168.13
2023-11-15T15:51:05.396Z,98179.38
2023-11-15T15:54:09.406Z,98171.22
2023-11-15T15:57:13.444Z,98183.91
2023-11-15T16:00:18.813Z,98161.88
2023-11-15T16:03:24.650Z,98188.94
2023-11-15T16:06:28.858Z,98200.25
2023-11-15T16:09:32.781Z,98196.34
2023-11-15T16:12:37.687Z,98207.69
2023-11-15T16:15:42.058Z,98207.88
2023-11-15T16:18:47.693Z,98210.63
2023-11-15T16:21:51.199Z,98222.28
2023-11-15T16:24:55.935Z,98221.28
2023-11-15T16:28:00.222Z,98210.28
2023-11-15T16:34:42.473Z,98217.69
2023-11-15T16:37:48.579Z,98228.50
2023-11-15T16:40:53.619Z,98225.63
2023-11-15T16:44:06.375Z,98238.56
2023-11-15T16:47:09.907Z,98224.66
2023-11-15T16:50:15.122Z,98227.31
2023-11-15T16:53:18.833Z,98243.31
2023-11-15T16:56:22.453Z,98244.22
2023-11-15T16:59:25.985Z,98248.41
2023-11-15T17:02:32.207Z,98243.94
2023-11-15T17:05:37.336Z,98241.34
2023-11-15T17:08:44.056Z,98246.38
2023-11-15T17:11:51.397Z,98255.53
2023-11-15T17:14:59.997Z,98257.84
2023-11-15T17:18:05.011Z,98257.53
2023-11-15T17:21:10.742Z,98268.13
2023-11-15T17:24:14.818Z,98263.38
2023-11-15T17:27:18.576Z,98277.16
2023-11-15T17:30:22.457Z,98269.53
2023-11-15T17:33:26.129Z,98284.81
2023-11-15T17:36:31.045Z,98288.41
2023-11-15T17:39:34.657Z,98288.19
2023-11-15T17:42:38.450Z,98289.03
2023-11-15T17:45:44.410Z,98304.56
2023-11-15T17:48:47.903Z,98285.81
2023-11-15T17:51:54.415Z,98302.19
2023-11-15T17:54:58.083Z,98298.81
2023-11-15T17:58:04.775Z,98311.59
2023-11-15T18:01:09.961Z,98310.75
2023-11-15T18:04:16.247Z,98310.50
2023-11-15T18:07:21.505Z,98295.94
2023-11-15T18:10:29.565Z,98308.53
2023-11-15T18:13:33.477Z,98309.34
2023-11-15T18:16:37.570Z,98327.31
2023-11-15T18:19:42.204Z,98314.56
2023-11-15T18:22:47.593Z,98321.31
2023-11-15T18:25:52.529Z,98316.09
2023-11-15T18:28:57.692Z,98322.03
2023-11-15T18:32:01.853Z,98329.00
2023-11-15T18:35:05.844Z,98328.03
2023-11-15T18:38:14.062Z,98318.88
2023-11-15T18:41:17.626Z,98324.19
2023-11-15T18:44:21.911Z,98328.38
2023-11-15T18:47:25.558Z,98324.38
2023-11-15T18:50:29.220Z,98332.63
2023-11-15T18:53:34.092Z,98345.72
2023-11-15T18:56:37.656Z,98346.34
2023-11-15T18:59:42.500Z,98348.94
2023-11-15T19:02:47.445Z,98343.97
2023-11-15T19:05:57.192Z,98362.50
2023-11-15T19:09:06.312Z,98363.53
2023-11-15T19:12:10.336Z,98361.25
2023-11-15T19:15:14.189Z,98344.41
2023-11-15T19:18:17.858Z,98350.13
2023-11-15T19:21:21.438Z,98356.22
2023-11-15T19:24:26.840Z,98365.00
2023-11-15T19:27:31.261Z,98355.75
2023-11-15T19:30:35.554Z,98350.41
2023-11-15T19:33:39.198Z,98347.84
2023-11-15T19:36:42.792Z,98347.06
2023-11-15T19:39:47.780Z,98348.47
2023-11-15T19:42:51.958Z,98345.03
2023-11-15T19:45:57.277Z,98340.81
2023-11-15T19:49:01.634Z,98343.09
2023-11-15T19:52:12.717Z,98338.19
2023-11-15T19:55:19.079Z,98341.31
2023-11-15T19:58:22.953Z,98343.00
2023-11-15T20:01:27.622Z,98338.81
2023-11-15T20:04:32.404Z,98351.66
2023-11-15T20:07:36.052Z,98344.75
2023-11-15T20:10:41.050Z,98344.84
2023-11-15T20:13:44.570Z,98350.13
2023-11-15T20:16:48.170Z,98351.69
2023-11-15T20:19:52.682Z,98357.69
2023-11-15T20:22:57.366Z,98354.34
2023-11-15T20:26:03.700Z,98353.44
2023-11-15T20:29:11.347Z,98356.84
2023-11-15T20:32:15.169Z,98357.78
2023-11-15T20:35:18.578Z,98353.50
2023-11-15T20:38:22.061Z,98355.25
2023-11-15T20:41:26.920Z,98358.53
2023-11-15T20:44:30.542Z,98357.91
2023-11-15T20:47:34.268Z,98359.00
2023-11-15T20:50:37.849Z,98363.81
2023-11-15T20:53:41.896Z,98363.03
2023-11-15T20:56:51.388Z,98347.47
2023-11-15T20:59:58.401Z,98351.28
2023-11-15T21:03:05.764Z,98367.38
2023-11-15T21:06:10.380Z,98369.97
2023-11-15T21:09:16.188Z,98359.19
2023-11-15T21:12:22.002Z,98359.88
2023-11-15T21:15:25.552Z,98372.09
2023-11-15T21:18:29.055Z,98361.00
2023-11-15T21:21:34.151Z,98376.63
2023-11-15T21:24:37.936Z,98369.06
2023-11-15T21:27:44.505Z,98377.94
2023-11-15T21:30:48.182Z,98374.56
2023-11-15T21:33:51.731Z,98376.56
2023-11-15T21:37:00.176Z,98370.50
2023-11-15T21:40:09.500Z,98373.06
2023-11-15T21:43:14.300Z,98367.97
2023-11-15T21:46:17.910Z,98361.28
2023-11-15T21:49:21.565Z,98358.69
2023-11-15T21:52:25.332Z,98351.56
2023-11-15T21:55:29.077Z,98345.41
2023-11-15T21:58:34.881Z,98352.75
2023-11-15T22:01:38.401Z,98340.09
2023-11-15T22:04:42.234Z,98351.16
2023-11-15T22:07:46.648Z,98352.09
2023-11-15T22:10:50.152Z,98327.66
2023-11-15T22:13:55.105Z,98341.13
2023-11-15T22:16:59.422Z,98339.44
2023-11-15T22:20:03.141Z,98341.22
2023-11-15T22:23:08.290Z,98337.97
2023-11-15T22:26:11.692Z,98332.69
2023-11-15T22:29:16.758Z,98336.19
2023-11-15T22:34:54.490Z,98321.25
2023-11-15T22:37:58.073Z,98326.28
2023-11-15T22:41:01.791Z,98320.22
2023-11-15T22:44:05.384Z,98322.78
2023-11-15T22:47:08.905Z,98317.63
2023-11-15T22:50:14.125Z,98322.69
2023-11-15T22:53:18.376Z,98321.06
2023-11-15T22:56:21.889Z,98322.78
2023-11-15T22:59:25.344Z,98324.56
2023-11-15T23:02:29.224Z,98313.50
2023-11-15T23:05:34.219Z,98324.59
2023-11-15T23:08:37.704Z,98320.50
2023-11-15T23:11:41.410Z,98324.91
2023-11-15T23:14:44.889Z,98321.34
2023-11-15T23:17:48.987Z,98291.63
2023-11-15T23:20:53.844Z,98308.44
2023-11-15T23:23:57.561Z,98308.22
2023-11-15T23:27:01.898Z,98304.19
2023-11-15T23:30:06.010Z,98300.66
2023-11-15T23:33:09.742Z,98294.84
2023-11-15T23:36:16.282Z,98295.69
2023-11-15T23:39:24.205Z,98294.78
2023-11-15T23:42:27.985Z,98282.56
2023-11-15T23:45:32.723Z,98284.38
2023-11-15T23:48:37.064Z,98280.19
2023-11-15T23:51:42.151Z,98281.59
2023-11-15T23:54:45.684Z,98283.66
2023-11-15T23:57:50.093Z,98276.03
